createdAt,value
2023-03-21T00:00:39.855Z,100627.09
2023-03-21T00:04:22.834Z,100624.22
2023-03-21T00:07:49.929Z,100624.11
2023-03-21T00:11:17.291Z,100622.80
2023-03-21T00:14:44.876Z,100627.58
2023-03-21T00:18:12.062Z,100624.51
2023-03-21T00:22:03.276Z,100626.50
2023-03-21T00:25:29.492Z,100626.96
2023-03-21T00:28:56.556Z,100620.70
2023-03-21T00:32:24.662Z,100616.33
2023-03-21T00:36:02.260Z,100617.73
2023-03-21T00:39:30.114Z,100618.90
2023-03-21T00:42:57.121Z,100618.20
2023-03-21T00:46:27.596Z,100618.89
2023-03-21T00:49:57.324Z,100616.63
2023-03-21T00:53:24.811Z,100618.36
2023-03-21T00:56:51.995Z,100614.16
2023-03-21T01:00:21.391Z,100617.93
2023-03-21T01:03:51.008Z,100616.71
2023-03-21T01:07:18.283Z,100615.27
2023-03-21T01:10:47.419Z,100621.29
2023-03-21T01:14:22.522Z,100621.78
2023-03-21T01:17:50.531Z,100623.30
2023-03-21T01:21:18.222Z,100622.98
2023-03-21T01:24:53.763Z,100622.33
2023-03-21T01:28:22.872Z,100621.95
2023-03-21T01:31:50.357Z,100616.52
2023-03-21T01:35:18.204Z,100616.49
2023-03-21T01:38:45.801Z,100618.91
2023-03-21T01:42:16.303Z,100621.30
2023-03-21T01:46:21.531Z,100619.52
2023-03-21T01:50:09.044Z,100618.95
2023-03-21T01:53:52.595Z,100613.02
2023-03-21T01:57:35.341Z,100613.03
2023-03-21T02:01:10.744Z,100605.36
2023-03-21T02:04:56.131Z,100610.05
2023-03-21T02:08:36.887Z,100605.84
2023-03-21T02:12:10.463Z,100605.09
2023-03-21T02:15:39.663Z,100606.41
2023-03-21T02:19:52.917Z,100607.91
2023-03-21T02:24:00.985Z,100604.55
2023-03-21T02:27:30.322Z,100606.94
2023-03-21T02:31:23.839Z,100609.90
2023-03-21T02:35:16.051Z,100608.27
2023-03-21T02:38:49.252Z,100607.87
2023-03-21T02:42:22.910Z,100610.77
2023-03-21T02:45:54.731Z,100604.66
2023-03-21T02:49:28.603Z,100603.21
2023-03-21T02:52:58.233Z,100601.93
2023-03-21T02:56:28.700Z,100605.01
2023-03-21T03:00:00.406Z,100605.48
2023-03-21T03:03:38.946Z,100604.34
2023-03-21T03:07:31.240Z,100607.02
2023-03-21T03:11:13.364Z,100608.90
2023-03-21T03:15:02.988Z,100612.83
2023-03-21T03:18:42.918Z,100612.62
2023-03-21T03:22:14.760Z,100618.10
2023-03-21T03:25:49.132Z,100613.14
2023-03-21T03:29:19.462Z,100613.43
2023-03-21T03:32:50.261Z,100615.98
2023-03-21T03:36:31.068Z,100614.37
2023-03-21T03:40:05.826Z,100618.42
2023-03-21T03:43:40.823Z,100619.34
2023-03-21T03:47:17.426Z,100618.12
2023-03-21T03:50:58.626Z,100619.52
2023-03-21T03:54:38.282Z,100616.11
2023-03-21T03:58:10.629Z,100617.45
2023-03-21T04:01:47.096Z,100620.98
2023-03-21T04:05:14.585Z,100621.93
2023-03-21T04:08:41.993Z,100618.60
2023-03-21T04:12:09.369Z,100623.42
2023-03-21T04:15:37.443Z,100630.31
2023-03-21T04:19:10.978Z,100636.89
2023-03-21T04:22:38.084Z,100631.79
2023-03-21T04:26:05.866Z,100634.35
2023-03-21T04:29:39.675Z,100639.55
2023-03-21T04:33:32.927Z,100637.09
2023-03-21T04:36:59.973Z,100639.34
2023-03-21T04:40:27.780Z,100635.83
2023-03-21T04:43:56.565Z,100640.02
2023-03-21T04:47:24.096Z,100641.10
2023-03-21T04:50:51.658Z,100640.77
2023-03-21T04:54:19.132Z,100642.36
2023-03-21T04:57:46.186Z,100643.09
2023-03-21T05:01:14.702Z,100646.95
2023-03-21T05:04:42.487Z,100644.70
2023-03-21T05:08:09.725Z,100650.12
2023-03-21T05:11:38.796Z,100650.30
2023-03-21T05:15:07.028Z,100656.88
2023-03-21T05:18:38.693Z,100654.67
2023-03-21T05:22:12.240Z,100655.91
2023-03-21T05:25:40.339Z,100656.83
2023-03-21T05:29:13.939Z,100652.71
2023-03-21T05:32:42.724Z,100658.30
2023-03-21T05:36:12.921Z,100658.01
2023-03-21T05:39:40.401Z,100661.57
2023-03-21T05:43:12.359Z,100664.44
2023-03-21T05:46:40.018Z,100665.40
2023-03-21T05:50:08.510Z,100665.99
2023-03-21T05:53:36.401Z,100664.58
2023-03-21T05:57:04.813Z,100664.61
2023-03-21T06:00:58.746Z,100668.50
2023-03-21T06:04:29.733Z,100673.03
2023-03-21T06:07:57.026Z,100675.62
2023-03-21T06:11:28.421Z,100674.23
2023-03-21T06:15:14.098Z,100677.59
2023-03-21T06:18:54.775Z,100678.15
2023-03-21T06:22:34.953Z,100678.45
2023-03-21T06:26:02.542Z,100680.45
2023-03-21T06:29:31.339Z,100683.90
2023-03-21T06:32:58.596Z,100681.31
2023-03-21T06:36:26.279Z,100687.41
2023-03-21T06:39:55.400Z,100685.80
2023-03-21T06:43:23.177Z,100690.14
2023-03-21T06:46:50.710Z,100687.31
2023-03-21T06:50:19.420Z,100685.71
2023-03-21T06:53:46.803Z,100688.75
2023-03-21T06:57:25.436Z,100690.63
2023-03-21T07:00:53.967Z,100691.78
2023-03-21T07:04:21.449Z,100693.88
2023-03-21T07:07:49.075Z,100699.53
2023-03-21T07:11:16.390Z,100699.45
2023-03-21T07:14:46.895Z,100705.45
2023-03-21T07:18:13.937Z,100710.39
2023-03-21T07:21:43.117Z,100708.91
2023-03-21T07:25:12.109Z,100714.71
2023-03-21T07:28:40.071Z,100715.61
2023-03-21T07:32:07.811Z,100717.56
2023-03-21T07:35:36.659Z,100720.16
2023-03-21T07:39:05.120Z,100719.96
2023-03-21T07:46:04.235Z,100727.05
2023-03-21T07:49:31.577Z,100727.21
2023-03-21T07:52:58.663Z,100722.52
2023-03-21T07:56:25.870Z,100725.39
2023-03-21T07:59:53.020Z,100730.55
2023-03-21T08:03:20.253Z,100728.91
2023-03-21T08:06:48.054Z,100730.72
2023-03-21T08:10:17.687Z,100729.49
2023-03-21T08:13:54.241Z,100729.08
2023-03-21T08:17:24.253Z,100731.42
2023-03-21T08:20:57.104Z,100730.80
2023-03-21T08:24:24.434Z,100735.73
2023-03-21T08:27:56.752Z,100740.45
2023-03-21T08:31:25.801Z,100739.98
2023-03-21T08:34:53.730Z,100739.83
2023-03-21T08:38:21.618Z,100742.52
2023-03-21T08:41:51.453Z,100742.79
2023-03-21T08:45:20.683Z,100748.80
2023-03-21T08:48:47.839Z,100752.02
2023-03-21T08:52:15.792Z,100752.79
2023-03-21T08:55:42.953Z,100755.48
2023-03-21T08:59:10.320Z,100752.95
2023-03-21T09:02:37.486Z,100755.23
2023-03-21T09:06:04.859Z,100754.71
2023-03-21T09:09:32.978Z,100758.38
2023-03-21T09:13:00.202Z,100759.41
2023-03-21T09:16:27.568Z,100760.20
2023-03-21T09:19:54.745Z,100758.93
2023-03-21T09:23:21.834Z,100754.88
2023-03-21T09:26:51.730Z,100761.15
2023-03-21T09:30:23.726Z,100764.86
2023-03-21T09:33:53.289Z,100765.30
2023-03-21T09:37:22.470Z,100762.89
2023-03-21T09:41:05.092Z,100764.73
2023-03-21T09:44:45.038Z,100765.80
2023-03-21T09:48:31.465Z,100762.88
2023-03-21T09:52:03.564Z,100758.60
2023-03-21T09:55:35.107Z,100754.98
2023-03-21T09:59:05.081Z,100756.85
2023-03-21T10:02:40.232Z,100756.88
2023-03-21T10:06:13.215Z,100754.33
2023-03-21T10:09:42.292Z,100752.05
2023-03-21T10:13:16.819Z,100752.35
2023-03-21T10:16:48.010Z,100748.58
2023-03-21T10:20:21.440Z,100745.48
2023-03-21T10:23:52.084Z,100744.00
2023-03-21T10:27:19.346Z,100746.39
2023-03-21T10:30:50.229Z,100749.98
2023-03-21T10:34:21.794Z,100750.42
2023-03-21T10:37:49.748Z,100746.60
2023-03-21T10:41:17.228Z,100748.23
2023-03-21T10:44:50.384Z,100750.78
2023-03-21T10:48:18.078Z,100748.58
2023-03-21T10:51:47.303Z,100747.75
2023-03-21T10:55:24.385Z,100750.03
2023-03-21T10:58:53.975Z,100747.61
2023-03-21T11:02:26.504Z,100737.10
2023-03-21T11:05:58.015Z,100735.89
2023-03-21T11:09:26.116Z,100735.55
2023-03-21T11:12:57.482Z,100731.33
2023-03-21T11:16:33.310Z,100729.41
2023-03-21T11:20:05.085Z,100725.90
2023-03-21T11:23:35.598Z,100727.49
2023-03-21T11:27:07.536Z,100717.83
2023-03-21T11:30:34.932Z,100719.23
2023-03-21T11:34:06.859Z,100721.16
2023-03-21T11:37:46.367Z,100717.48
2023-03-21T11:41:23.560Z,100716.29
2023-03-21T11:45:04.840Z,100709.41
2023-03-21T11:48:33.355Z,100703.39
2023-03-21T11:52:16.174Z,100701.12
2023-03-21T11:55:55.418Z,100697.42
2023-03-21T11:59:38.145Z,100694.96
2023-03-21T12:03:48.602Z,100692.16
2023-03-21T12:07:34.045Z,100689.69
2023-03-21T12:11:09.681Z,100689.50
2023-03-21T12:14:46.619Z,100687.36
2023-03-21T12:18:27.145Z,100681.36
2023-03-21T12:22:09.309Z,100677.11
2023-03-21T12:25:41.687Z,100678.52
2023-03-21T12:29:31.143Z,100673.20
2023-03-21T12:33:15.736Z,100669.48
2023-03-21T12:37:07.675Z,100668.56
2023-03-21T12:40:51.189Z,100659.19
2023-03-21T12:44:22.507Z,100658.84
2023-03-21T12:47:57.227Z,100659.86
2023-03-21T12:51:32.585Z,100649.66
2023-03-21T12:55:04.820Z,100647.77
2023-03-21T12:58:39.142Z,100645.36
2023-03-21T13:02:18.984Z,100649.14
2023-03-21T13:05:50.121Z,100645.50
2023-03-21T13:09:36.740Z,100637.96
2023-03-21T13:13:20.889Z,100633.73
2023-03-21T13:16:56.274Z,100626.70
2023-03-21T13:20:32.282Z,100621.98
2023-03-21T13:24:19.702Z,100623.20
2023-03-21T13:27:56.037Z,100622.51
2023-03-21T13:31:32.024Z,100620.03
2023-03-21T13:35:19.466Z,100616.33
2023-03-21T13:38:54.071Z,100604.19
2023-03-21T13:42:32.446Z,100603.48
2023-03-21T13:46:09.398Z,100603.27
2023-03-21T13:49:39.118Z,100602.23
2023-03-21T13:53:19.578Z,100602.17
2023-03-21T13:57:00.007Z,100603.19
2023-03-21T14:00:35.692Z,100601.10
2023-03-21T14:04:11.721Z,100600.77
2023-03-21T14:07:44.233Z,100601.33
2023-03-21T14:11:17.444Z,100599.41
2023-03-21T14:14:48.630Z,100598.35
2023-03-21T14:18:28.240Z,100589.91
2023-03-21T14:22:14.571Z,100589.35
2023-03-21T14:25:47.518Z,100585.29
2023-03-21T14:29:26.772Z,100577.89
2023-03-21T14:32:57.724Z,100578.95
2023-03-21T14:36:28.722Z,100573.84
2023-03-21T14:40:02.942Z,100567.69
2023-03-21T14:43:34.103Z,100566.06
2023-03-21T14:47:05.856Z,100561.65
2023-03-21T14:50:39.877Z,100560.04
2023-03-21T14:54:07.671Z,100561.04
2023-03-21T14:57:35.931Z,100565.20
2023-03-21T15:01:05.706Z,100564.27
2023-03-21T15:04:34.144Z,100567.23
2023-03-21T15:08:03.128Z,100571.02
2023-03-21T15:11:35.495Z,100566.73
2023-03-21T15:15:04.002Z,100566.48
2023-03-21T15:18:34.255Z,100568.84
2023-03-21T15:22:07.318Z,100560.89
2023-03-21T15:25:38.636Z,100562.05
2023-03-21T15:29:09.208Z,100563.35
2023-03-21T15:32:39.138Z,100560.40
2023-03-21T15:36:12.721Z,100562.16
2023-03-21T15:39:39.959Z,100561.15
2023-03-21T15:43:17.443Z,100562.63
2023-03-21T15:46:48.254Z,100560.45
2023-03-21T15:50:26.772Z,100559.84
2023-03-21T15:53:55.891Z,100556.19
2023-03-21T15:57:25.900Z,100561.48
2023-03-21T16:00:55.668Z,100564.13
2023-03-21T16:04:24.437Z,100562.63
2023-03-21T16:07:52.247Z,100559.89
2023-03-21T16:11:25.630Z,100556.48
2023-03-21T16:14:53.201Z,100554.45
2023-03-21T16:18:22.874Z,100546.30
2023-03-21T16:21:48.559Z,100545.66
2023-03-21T16:25:16.052Z,100542.98
2023-03-21T16:28:43.713Z,100548.33
2023-03-21T16:32:17.121Z,100545.80
2023-03-21T16:35:44.341Z,100545.52
2023-03-21T16:39:21.090Z,100547.68
2023-03-21T16:42:48.402Z,100548.78
2023-03-21T16:46:17.905Z,100548.33
2023-03-21T16:49:47.963Z,100547.52
2023-03-21T16:53:17.298Z,100543.74
2023-03-21T16:56:47.561Z,100541.56
2023-03-21T17:00:20.891Z,100540.94
2023-03-21T17:03:48.770Z,100543.47
2023-03-21T17:07:16.298Z,100544.27
2023-03-21T17:10:44.146Z,100541.94
2023-03-21T17:14:16.965Z,100540.73
2023-03-21T17:17:44.744Z,100542.94
2023-03-21T17:21:16.407Z,100540.58
2023-03-21T17:24:43.821Z,100539.97
2023-03-21T17:28:11.844Z,100543.55
2023-03-21T17:31:40.297Z,100547.65
2023-03-21T17:35:08.880Z,100549.48
2023-03-21T17:38:39.431Z,100550.11
2023-03-21T17:42:16.500Z,100551.21
2023-03-21T17:45:44.311Z,100548.70
2023-03-21T17:49:14.447Z,100547.92
2023-03-21T17:52:42.125Z,100548.39
2023-03-21T17:56:16.233Z,100549.56
2023-03-21T17:59:44.198Z,100550.06
2023-03-21T18:03:11.607Z,100548.81
2023-03-21T18:06:39.070Z,100551.07
2023-03-21T18:10:07.463Z,100551.06
2023-03-21T18:13:35.767Z,100554.69
2023-03-21T18:17:04.828Z,100555.19
2023-03-21T18:24:22.341Z,100566.64
2023-03-21T18:28:10.190Z,100563.50
2023-03-21T18:31:38.809Z,100559.30
2023-03-21T18:35:07.076Z,100559.80
2023-03-21T18:38:34.250Z,100560.81
2023-03-21T18:42:04.498Z,100559.23
2023-03-21T18:45:34.782Z,100556.60
2023-03-21T18:49:33.730Z,100554.81
2023-03-21T18:52:49.756Z,100557.55
2023-03-21T19:00:09.627Z,100554.98
2023-03-21T19:03:37.790Z,100553.90
2023-03-21T19:07:08.088Z,100554.20
2023-03-21T19:10:37.860Z,100552.95
2023-03-21T19:14:06.702Z,100558.29
2023-03-21T19:21:22.024Z,100555.02
2023-03-21T19:24:50.275Z,100549.02
2023-03-21T19:28:17.542Z,100545.80
2023-03-21T19:31:46.520Z,100540.67
2023-03-21T19:35:15.179Z,100538.73
2023-03-21T19:38:43.331Z,100534.66
2023-03-21T19:42:16.948Z,100530.08
2023-03-21T19:45:47.940Z,100529.68
2023-03-21T19:49:20.152Z,100522.52
2023-03-21T19:52:47.277Z,100517.80
2023-03-21T19:56:22.495Z,100511.69
2023-03-21T19:59:54.985Z,100510.30
2023-03-21T20:03:23.013Z,100509.26
2023-03-21T20:06:50.803Z,100512.39
2023-03-21T20:10:18.724Z,100515.88
2023-03-21T20:13:46.679Z,100518.84
2023-03-21T20:17:17.136Z,100519.34
2023-03-21T20:20:44.817Z,100516.70
2023-03-21T20:24:13.074Z,100518.59
2023-03-21T20:27:41.559Z,100516.77
2023-03-21T20:31:09.838Z,100516.67
2023-03-21T20:34:40.368Z,100518.87
2023-03-21T20:38:09.734Z,100518.63
2023-03-21T20:41:37.027Z,100518.02
2023-03-21T20:45:04.034Z,100516.77
2023-03-21T20:48:31.773Z,100514.64
2023-03-21T20:55:47.314Z,100511.95
2023-03-21T20:59:24.563Z,100514.86
2023-03-21T21:02:54.090Z,100520.57
2023-03-21T21:06:23.009Z,100519.31
2023-03-21T21:09:51.430Z,100519.08
2023-03-21T21:13:19.679Z,100512.95
2023-03-21T21:16:47.857Z,100503.69
2023-03-21T21:20:17.711Z,100491.83
2023-03-21T21:23:43.609Z,100486.07
2023-03-21T21:27:10.899Z,100483.80
2023-03-21T21:30:41.376Z,100487.45
2023-03-21T21:34:08.677Z,100487.45
2023-03-21T21:37:35.862Z,100485.02
2023-03-21T21:41:04.339Z,100484.20
2023-03-21T21:44:31.653Z,100480.75
2023-03-21T21:47:59.005Z,100477.48
2023-03-21T21:51:27.187Z,100476.64
2023-03-21T21:54:54.638Z,100475.46
2023-03-21T21:58:22.058Z,100475.33
2023-03-21T22:01:51.291Z,100475.21
2023-03-21T22:05:19.527Z,100474.16
2023-03-21T22:08:48.363Z,100472.95
2023-03-21T22:12:16.919Z,100473.84
2023-03-21T22:15:44.539Z,100465.13
2023-03-21T22:19:12.263Z,100463.91
2023-03-21T22:22:43.113Z,100462.04
2023-03-21T22:26:11.947Z,100456.84
2023-03-21T22:29:39.365Z,100452.84
2023-03-21T22:33:09.988Z,100450.96
2023-03-21T22:36:38.184Z,100444.35
2023-03-21T22:40:08.329Z,100442.80
2023-03-21T22:43:35.808Z,100436.88
2023-03-21T22:47:03.071Z,100440.54
2023-03-21T22:50:31.285Z,100436.15
2023-03-21T22:53:59.342Z,100431.65
2023-03-21T22:57:27.003Z,100432.88
2023-03-21T23:00:54.336Z,100434.44
2023-03-21T23:04:21.866Z,100432.01
2023-03-21T23:07:49.212Z,100433.11
2023-03-21T23:11:16.506Z,100432.42
2023-03-21T23:14:43.560Z,100436.61
2023-03-21T23:18:11.031Z,100436.79
2023-03-21T23:21:38.477Z,100435.22
2023-03-21T23:25:07.605Z,100435.73
2023-03-21T23:28:34.824Z,100430.64
2023-03-21T23:32:02.218Z,100430.45
2023-03-21T23:35:30.031Z,100427.63
2023-03-21T23:38:57.171Z,100420.85
2023-03-21T23:42:25.189Z,100413.16
2023-03-21T23:45:52.601Z,100408.84
2023-03-21T23:49:20.684Z,100405.92
2023-03-21T23:52:47.714Z,100401.45
2023-03-21T23:56:19.769Z,100396.25
2023-03-21T23:59:47.210Z,100390.34
